Terminal Aerodrome Forecast
Issued by NWS Lake Charles, LA

Home | Current Version | Previous Version | Text Only | Print | Product List | Glossary On
Versions: 1 2 3 4 5 6 7 8 9 10 11 12 13 14
000
FTUS44 KLCH 311100
TAFARA
TAF
KARA 311134Z 3112/0112 07005KT P6SM BKN200
     FM311500 11012KT P6SM FEW025 SCT050 OVC200
     FM010600 11010KT 5SM BR SCT025 OVC035
     FM010900 11007KT 4SM -SHRA BR OVC015=

USA.gov is the U.S. government's official web portal to all federal, state and local government web resources and services.